Airport Name : Skylark Fld

Other Name : Killeem

ICAO : KILE

IATA : ILE

FAA : ILE

Latitude : 31.085833

Longitude : -97.6865

Country : United States

Local Date and Time : 28 Oct 2020 14:35

 

TAF (Terminal Aerodrome Forecast)

 

METAR (METeorological Aerodrome Report)

KILE 281856Z AUTO 30012G19KT 10SM CLR 11/04 A2993 RMK AO2 SLP134 T01110044

KILE 281756Z AUTO 30011G17KT 10SM SCT055 09/04 A2996 RMK AO2 SLP145 60000 T00940044 10094 20028 58008

KILE 281716Z AUTO 30010G20KT 10SM SCT015 BKN050 OVC055 07/03 A2999 RMK AO2

KILE 281656Z AUTO 29011G16KT 10SM BKN017 BKN047 OVC055 06/03 A2999 RMK AO2 SLP154 T00610028

KILE 281627Z AUTO 30011G19KT 10SM BKN015 OVC050 06/03 A3000 RMK AO2

KILE 281556Z AUTO 29009KT 10SM FEW011 OVC044 06/03 A2999 RMK AO2 SLP157 T00560033

To Charter a Jet Click here.